Gold Beach, Oregon
Current Conditions -  °F | °C
As of 2:38 AM on Saturday 25 Oct 2014 (Local Time) from KBOK Reporting Station
Moderate Rain Moderate Rain  
Wind Chill: 55°   Ceiling: 300
Heat Index: 55°   Visibility: 1.5mi
Dew Point: 55°   Wind: 24mph
Humidity: 100%   Direction: 170°S
Pressure: 29.62"   Gusts: 35mph
Location:  42.41°N, 124.42°W
Report Text: KBOK 250938Z AUTO 17021G30KT 1 1/2SM RA BR OVC003 13/13 A2962 RMK AO2 CIG 001V007 P0008 PK WND 17030/0934
Loading
Personal Weather Stations






























Interactive Weather Map New forecast layout! Learn more

10-Day Weather Forecast

Advertisements
Track Severe Weather on mobile